sensor_id;sensor_type;location;lat;lon;timestamp;temperature;humidity
21176;DHT22;10746;50.178;8.186;2023-04-12T00:00:08;7.60;99.90
21176;DHT22;10746;50.178;8.186;2023-04-12T00:02:38;7.70;99.90
21176;DHT22;10746;50.178;8.186;2023-04-12T00:05:07;7.60;99.90
21176;DHT22;10746;50.178;8.186;2023-04-12T00:07:36;7.60;99.90
21176;DHT22;10746;50.178;8.186;2023-04-12T00:10:06;7.60;99.90
21176;DHT22;10746;50.178;8.186;2023-04-12T00:12:33;7.60;99.90
21176;DHT22;10746;50.178;8.186;2023-04-12T00:15:00;7.60;99.90
21176;DHT22;10746;50.178;8.186;2023-04-12T00:17:27;7.60;99.90
21176;DHT22;10746;50.178;8.186;2023-04-12T00:19:54;7.60;99.90
21176;DHT22;10746;50.178;8.186;2023-04-12T00:22:21;7.50;99.90
21176;DHT22;10746;50.178;8.186;2023-04-12T00:24:48;7.50;99.90
21176;DHT22;10746;50.178;8.186;2023-04-12T00:27:16;7.40;99.90
21176;DHT22;10746;50.178;8.186;2023-04-12T00:29:43;7.30;99.90
21176;DHT22;10746;50.178;8.186;2023-04-12T00:32:10;7.20;99.90
21176;DHT22;10746;50.178;8.186;2023-04-12T00:34:36;7.10;99.90
21176;DHT22;10746;50.178;8.186;2023-04-12T00:37:03;7.10;99.90
21176;DHT22;10746;50.178;8.186;2023-04-12T00:39:30;7.00;99.90
21176;DHT22;10746;50.178;8.186;2023-04-12T00:41:58;6.90;99.90
21176;DHT22;10746;50.178;8.186;2023-04-12T00:44:27;6.80;99.90
21176;DHT22;10746;50.178;8.186;2023-04-12T00:46:53;6.80;99.90
21176;DHT22;10746;50.178;8.186;2023-04-12T00:49:20;6.70;99.90
21176;DHT22;10746;50.178;8.186;2023-04-12T00:51:47;6.60;99.90
21176;DHT22;10746;50.178;8.186;2023-04-12T00:54:14;6.60;99.90
21176;DHT22;10746;50.178;8.186;2023-04-12T00:56:43;6.50;99.90
21176;DHT22;10746;50.178;8.186;2023-04-12T00:59:10;6.40;99.90
21176;DHT22;10746;50.178;8.186;2023-04-12T01:01:38;6.30;99.90
21176;DHT22;10746;50.178;8.186;2023-04-12T01:04:06;6.30;99.90
21176;DHT22;10746;50.178;8.186;2023-04-12T01:06:41;6.20;99.90
21176;DHT22;10746;50.178;8.186;2023-04-12T01:09:18;6.20;99.90
21176;DHT22;10746;50.178;8.186;2023-04-12T01:11:53;6.20;99.90
21176;DHT22;10746;50.178;8.186;2023-04-12T01:14:30;6.10;99.90
21176;DHT22;10746;50.178;8.186;2023-04-12T01:17:05;6.10;99.90
21176;DHT22;10746;50.178;8.186;2023-04-12T01:19:47;6.00;99.90
21176;DHT22;10746;50.178;8.186;2023-04-12T01:22:41;6.00;99.90
21176;DHT22;10746;50.178;8.186;2023-04-12T01:25:22;6.00;99.90
21176;DHT22;10746;50.178;8.186;2023-04-12T01:27:56;6.00;99.90
21176;DHT22;10746;50.178;8.186;2023-04-12T01:30:27;6.00;99.90
21176;DHT22;10746;50.178;8.186;2023-04-12T01:32:56;5.90;99.90
21176;DHT22;10746;50.178;8.186;2023-04-12T01:35:27;5.90;99.90
21176;DHT22;10746;50.178;8.186;2023-04-12T01:37:56;5.90;99.90
21176;DHT22;10746;50.178;8.186;2023-04-12T01:40:24;5.90;99.90
21176;DHT22;10746;50.178;8.186;2023-04-12T01:43:03;5.90;99.90
21176;DHT22;10746;50.178;8.186;2023-04-12T01:45:29;5.90;99.90
21176;DHT22;10746;50.178;8.186;2023-04-12T01:47:56;5.80;99.90
21176;DHT22;10746;50.178;8.186;2023-04-12T01:50:30;5.80;99.90
21176;DHT22;10746;50.178;8.186;2023-04-12T01:53:02;5.80;99.90
21176;DHT22;10746;50.178;8.186;2023-04-12T01:55:36;5.80;99.90
21176;DHT22;10746;50.178;8.186;2023-04-12T01:58:06;5.80;99.90
21176;DHT22;10746;50.178;8.186;2023-04-12T02:00:36;5.80;99.90
21176;DHT22;10746;50.178;8.186;2023-04-12T02:03:04;5.80;99.90
21176;DHT22;10746;50.178;8.186;2023-04-12T02:05:31;5.80;99.90
21176;DHT22;10746;50.178;8.186;2023-04-12T02:08:00;5.80;99.90
21176;DHT22;10746;50.178;8.186;2023-04-12T02:10:28;5.70;99.90
21176;DHT22;10746;50.178;8.186;2023-04-12T02:12:57;5.70;99.90
21176;DHT22;10746;50.178;8.186;2023-04-12T02:15:25;5.70;99.90
21176;DHT22;10746;50.178;8.186;2023-04-12T02:17:53;5.70;99.90
21176;DHT22;10746;50.178;8.186;2023-04-12T02:20:19;5.70;99.90
21176;DHT22;10746;50.178;8.186;2023-04-12T02:22:47;5.70;99.90
21176;DHT22;10746;50.178;8.186;2023-04-12T02:25:14;5.60;99.90
21176;DHT22;10746;50.178;8.186;2023-04-12T02:27:42;5.70;99.90
21176;DHT22;10746;50.178;8.186;2023-04-12T02:30:09;5.70;99.90
21176;DHT22;10746;50.178;8.186;2023-04-12T02:32:38;5.60;99.90
21176;DHT22;10746;50.178;8.186;2023-04-12T02:35:09;5.60;99.90
21176;DHT22;10746;50.178;8.186;2023-04-12T02:37:36;5.60;99.90
21176;DHT22;10746;50.178;8.186;2023-04-12T02:40:03;5.60;99.90
21176;DHT22;10746;50.178;8.186;2023-04-12T02:42:34;5.60;99.90
21176;DHT22;10746;50.178;8.186;2023-04-12T02:45:01;5.60;99.90
21176;DHT22;10746;50.178;8.186;2023-04-12T02:47:28;5.60;99.90
21176;DHT22;10746;50.178;8.186;2023-04-12T02:49:56;5.60;99.90
21176;DHT22;10746;50.178;8.186;2023-04-12T02:52:23;5.60;99.90
21176;DHT22;10746;50.178;8.186;2023-04-12T02:54:50;5.60;99.90
21176;DHT22;10746;50.178;8.186;2023-04-12T02:57:17;5.60;99.90
21176;DHT22;10746;50.178;8.186;2023-04-12T02:59:45;5.60;99.90
21176;DHT22;10746;50.178;8.186;2023-04-12T03:02:12;5.60;99.90
21176;DHT22;10746;50.178;8.186;2023-04-12T03:04:39;5.60;99.90
21176;DHT22;10746;50.178;8.186;2023-04-12T03:07:07;5.50;99.90
21176;DHT22;10746;50.178;8.186;2023-04-12T03:09:34;5.60;99.90
21176;DHT22;10746;50.178;8.186;2023-04-12T03:12:03;5.60;99.90
21176;DHT22;10746;50.178;8.186;2023-04-12T03:14:30;5.50;99.90
21176;DHT22;10746;50.178;8.186;2023-04-12T03:16:57;5.50;99.90
21176;DHT22;10746;50.178;8.186;2023-04-12T03:19:23;5.50;99.90
21176;DHT22;10746;50.178;8.186;2023-04-12T03:21:50;5.60;99.90
21176;DHT22;10746;50.178;8.186;2023-04-12T03:24:18;5.50;99.90
21176;DHT22;10746;50.178;8.186;2023-04-12T03:26:45;5.50;99.90
21176;DHT22;10746;50.178;8.186;2023-04-12T03:29:12;5.50;99.90
21176;DHT22;10746;50.178;8.186;2023-04-12T03:31:39;5.50;99.90
21176;DHT22;10746;50.178;8.186;2023-04-12T03:34:05;5.60;99.90
21176;DHT22;10746;50.178;8.186;2023-04-12T03:36:32;5.60;99.90
21176;DHT22;10746;50.178;8.186;2023-04-12T03:38:59;5.60;99.90
21176;DHT22;10746;50.178;8.186;2023-04-12T03:41:27;5.50;99.90
21176;DHT22;10746;50.178;8.186;2023-04-12T03:43:54;5.50;99.90
21176;DHT22;10746;50.178;8.186;2023-04-12T03:46:21;5.50;99.90
21176;DHT22;10746;50.178;8.186;2023-04-12T03:48:48;5.60;99.90
21176;DHT22;10746;50.178;8.186;2023-04-12T03:51:15;5.60;99.90
21176;DHT22;10746;50.178;8.186;2023-04-12T03:53:42;5.50;99.90
21176;DHT22;10746;50.178;8.186;2023-04-12T03:56:09;5.50;99.90
21176;DHT22;10746;50.178;8.186;2023-04-12T03:58:38;5.50;99.90
21176;DHT22;10746;50.178;8.186;2023-04-12T04:01:06;5.50;99.90
21176;DHT22;10746;50.178;8.186;2023-04-12T04:03:34;5.50;99.90
21176;DHT22;10746;50.178;8.186;2023-04-12T04:06:01;5.50;99.90
21176;DHT22;10746;50.178;8.186;2023-04-12T04:08:28;5.50;99.90
21176;DHT22;10746;50.178;8.186;2023-04-12T04:10:57;5.50;99.90
21176;DHT22;10746;50.178;8.186;2023-04-12T04:13:24;5.50;99.90
21176;DHT22;10746;50.178;8.186;2023-04-12T04:15:58;5.50;99.90
21176;DHT22;10746;50.178;8.186;2023-04-12T04:18:25;5.50;99.90
21176;DHT22;10746;50.178;8.186;2023-04-12T04:20:52;5.50;99.90
21176;DHT22;10746;50.178;8.186;2023-04-12T04:23:19;5.40;99.90
21176;DHT22;10746;50.178;8.186;2023-04-12T04:25:46;5.40;99.90
21176;DHT22;10746;50.178;8.186;2023-04-12T04:28:13;5.40;99.90
21176;DHT22;10746;50.178;8.186;2023-04-12T04:30:41;5.40;99.90
21176;DHT22;10746;50.178;8.186;2023-04-12T04:33:11;5.40;99.90
21176;DHT22;10746;50.178;8.186;2023-04-12T04:35:40;5.50;99.90
21176;DHT22;10746;50.178;8.186;2023-04-12T04:38:08;5.50;99.90
21176;DHT22;10746;50.178;8.186;2023-04-12T04:40:36;5.50;99.90
21176;DHT22;10746;50.178;8.186;2023-04-12T04:43:03;5.50;99.90
21176;DHT22;10746;50.178;8.186;2023-04-12T04:45:29;5.50;99.90
21176;DHT22;10746;50.178;8.186;2023-04-12T04:47:57;5.50;99.90
21176;DHT22;10746;50.178;8.186;2023-04-12T04:50:25;5.50;99.90
21176;DHT22;10746;50.178;8.186;2023-04-12T04:52:52;5.50;99.90
21176;DHT22;10746;50.178;8.186;2023-04-12T04:55:19;5.50;99.90
21176;DHT22;10746;50.178;8.186;2023-04-12T04:57:46;5.50;99.90
21176;DHT22;10746;50.178;8.186;2023-04-12T05:00:13;5.60;99.90
21176;DHT22;10746;50.178;8.186;2023-04-12T05:02:41;5.50;99.90
21176;DHT22;10746;50.178;8.186;2023-04-12T05:05:09;5.50;99.90
21176;DHT22;10746;50.178;8.186;2023-04-12T05:07:39;5.50;99.90
21176;DHT22;10746;50.178;8.186;2023-04-12T05:10:09;5.60;99.90
21176;DHT22;10746;50.178;8.186;2023-04-12T05:12:35;5.60;99.90
21176;DHT22;10746;50.178;8.186;2023-04-12T05:15:03;5.60;99.90
21176;DHT22;10746;50.178;8.186;2023-04-12T05:17:30;5.50;99.90
21176;DHT22;10746;50.178;8.186;2023-04-12T05:19:58;5.60;99.90
21176;DHT22;10746;50.178;8.186;2023-04-12T05:22:25;5.60;99.90
21176;DHT22;10746;50.178;8.186;2023-04-12T05:24:55;5.60;99.90
21176;DHT22;10746;50.178;8.186;2023-04-12T05:27:22;5.70;99.90
21176;DHT22;10746;50.178;8.186;2023-04-12T05:29:48;5.70;99.90
21176;DHT22;10746;50.178;8.186;2023-04-12T05:32:15;5.70;99.90
21176;DHT22;10746;50.178;8.186;2023-04-12T05:34:42;5.70;99.90
21176;DHT22;10746;50.178;8.186;2023-04-12T05:37:09;5.70;99.90
21176;DHT22;10746;50.178;8.186;2023-04-12T05:39:35;5.70;99.90
21176;DHT22;10746;50.178;8.186;2023-04-12T05:42:04;5.70;99.90
21176;DHT22;10746;50.178;8.186;2023-04-12T05:44:33;5.80;99.90
21176;DHT22;10746;50.178;8.186;2023-04-12T05:47:00;5.80;99.90
21176;DHT22;10746;50.178;8.186;2023-04-12T05:49:28;5.80;99.90
21176;DHT22;10746;50.178;8.186;2023-04-12T05:51:55;5.80;99.90
21176;DHT22;10746;50.178;8.186;2023-04-12T05:54:22;5.80;99.90
21176;DHT22;10746;50.178;8.186;2023-04-12T05:56:50;5.70;99.90
21176;DHT22;10746;50.178;8.186;2023-04-12T05:59:18;5.70;99.90
21176;DHT22;10746;50.178;8.186;2023-04-12T06:01:45;5.80;99.90
21176;DHT22;10746;50.178;8.186;2023-04-12T06:04:12;5.80;99.90
21176;DHT22;10746;50.178;8.186;2023-04-12T06:06:40;5.80;99.90
21176;DHT22;10746;50.178;8.186;2023-04-12T06:09:09;5.80;99.90
21176;DHT22;10746;50.178;8.186;2023-04-12T06:11:35;5.80;99.90
21176;DHT22;10746;50.178;8.186;2023-04-12T06:14:03;5.70;99.90
21176;DHT22;10746;50.178;8.186;2023-04-12T06:16:31;5.80;99.90
21176;DHT22;10746;50.178;8.186;2023-04-12T06:19:00;5.80;99.90
21176;DHT22;10746;50.178;8.186;2023-04-12T06:21:27;5.80;99.90
21176;DHT22;10746;50.178;8.186;2023-04-12T06:23:54;5.70;99.90
21176;DHT22;10746;50.178;8.186;2023-04-12T06:26:20;5.70;99.90
21176;DHT22;10746;50.178;8.186;2023-04-12T06:28:47;5.70;99.90
21176;DHT22;10746;50.178;8.186;2023-04-12T06:31:14;5.70;99.90
21176;DHT22;10746;50.178;8.186;2023-04-12T06:33:43;5.70;99.90
21176;DHT22;10746;50.178;8.186;2023-04-12T06:36:10;5.70;99.90
21176;DHT22;10746;50.178;8.186;2023-04-12T06:38:37;5.70;99.90
21176;DHT22;10746;50.178;8.186;2023-04-12T06:41:04;5.70;99.90
21176;DHT22;10746;50.178;8.186;2023-04-12T06:43:31;5.70;99.90
21176;DHT22;10746;50.178;8.186;2023-04-12T06:45:58;5.70;99.90
21176;DHT22;10746;50.178;8.186;2023-04-12T06:48:27;5.70;99.90
21176;DHT22;10746;50.178;8.186;2023-04-12T06:50:55;5.70;99.90
21176;DHT22;10746;50.178;8.186;2023-04-12T06:53:22;5.70;99.90
21176;DHT22;10746;50.178;8.186;2023-04-12T06:55:49;5.70;99.90
21176;DHT22;10746;50.178;8.186;2023-04-12T06:58:18;5.80;99.90
21176;DHT22;10746;50.178;8.186;2023-04-12T07:00:44;5.80;99.90
21176;DHT22;10746;50.178;8.186;2023-04-12T07:03:11;5.80;99.90
21176;DHT22;10746;50.178;8.186;2023-04-12T07:05:38;5.80;99.90
21176;DHT22;10746;50.178;8.186;2023-04-12T07:08:06;5.80;99.90
21176;DHT22;10746;50.178;8.186;2023-04-12T07:10:34;5.80;99.90
21176;DHT22;10746;50.178;8.186;2023-04-12T07:13:01;5.80;99.90
21176;DHT22;10746;50.178;8.186;2023-04-12T07:15:31;5.80;99.90
21176;DHT22;10746;50.178;8.186;2023-04-12T07:17:59;5.80;99.90
21176;DHT22;10746;50.178;8.186;2023-04-12T07:20:26;5.80;99.90
21176;DHT22;10746;50.178;8.186;2023-04-12T07:22:53;5.80;99.90
21176;DHT22;10746;50.178;8.186;2023-04-12T07:25:21;5.90;99.90
21176;DHT22;10746;50.178;8.186;2023-04-12T07:27:48;5.90;99.90
21176;DHT22;10746;50.178;8.186;2023-04-12T07:30:14;5.90;99.90
21176;DHT22;10746;50.178;8.186;2023-04-12T07:32:41;5.90;99.90
21176;DHT22;10746;50.178;8.186;2023-04-12T07:35:08;5.90;99.90
21176;DHT22;10746;50.178;8.186;2023-04-12T07:37:36;5.90;99.90
21176;DHT22;10746;50.178;8.186;2023-04-12T07:40:04;5.90;99.90
21176;DHT22;10746;50.178;8.186;2023-04-12T07:42:32;6.00;99.90
21176;DHT22;10746;50.178;8.186;2023-04-12T07:44:59;6.00;99.90
21176;DHT22;10746;50.178;8.186;2023-04-12T07:47:26;6.10;99.90
21176;DHT22;10746;50.178;8.186;2023-04-12T07:49:52;6.00;99.90
21176;DHT22;10746;50.178;8.186;2023-04-12T07:52:19;6.10;99.90
21176;DHT22;10746;50.178;8.186;2023-04-12T07:54:46;6.10;99.90
21176;DHT22;10746;50.178;8.186;2023-04-12T07:57:13;6.10;99.90
21176;DHT22;10746;50.178;8.186;2023-04-12T07:59:41;6.10;99.90
21176;DHT22;10746;50.178;8.186;2023-04-12T08:02:08;6.20;99.90
21176;DHT22;10746;50.178;8.186;2023-04-12T08:04:34;6.20;99.90
21176;DHT22;10746;50.178;8.186;2023-04-12T08:07:02;6.20;99.90
21176;DHT22;10746;50.178;8.186;2023-04-12T08:09:29;6.20;99.90
21176;DHT22;10746;50.178;8.186;2023-04-12T08:11:56;6.20;99.90
21176;DHT22;10746;50.178;8.186;2023-04-12T08:14:22;6.20;99.90
21176;DHT22;10746;50.178;8.186;2023-04-12T08:16:50;6.20;99.90
21176;DHT22;10746;50.178;8.186;2023-04-12T08:19:18;6.20;99.90
21176;DHT22;10746;50.178;8.186;2023-04-12T08:21:45;6.30;99.90
21176;DHT22;10746;50.178;8.186;2023-04-12T08:24:12;6.30;99.90
21176;DHT22;10746;50.178;8.186;2023-04-12T08:26:39;6.30;99.90
21176;DHT22;10746;50.178;8.186;2023-04-12T08:29:06;6.30;99.90
21176;DHT22;10746;50.178;8.186;2023-04-12T08:31:33;6.40;99.90
21176;DHT22;10746;50.178;8.186;2023-04-12T08:34:01;6.40;99.90
21176;DHT22;10746;50.178;8.186;2023-04-12T08:36:28;6.40;99.90
21176;DHT22;10746;50.178;8.186;2023-04-12T08:38:57;6.40;99.90
21176;DHT22;10746;50.178;8.186;2023-04-12T08:41:25;6.50;99.90
21176;DHT22;10746;50.178;8.186;2023-04-12T08:43:52;6.50;99.90
21176;DHT22;10746;50.178;8.186;2023-04-12T08:46:21;6.50;99.90
21176;DHT22;10746;50.178;8.186;2023-04-12T08:48:49;6.50;99.90
21176;DHT22;10746;50.178;8.186;2023-04-12T08:51:20;6.60;99.90
21176;DHT22;10746;50.178;8.186;2023-04-12T08:53:47;6.60;99.90
21176;DHT22;10746;50.178;8.186;2023-04-12T08:56:15;6.60;99.90
21176;DHT22;10746;50.178;8.186;2023-04-12T08:58:45;6.60;99.90
21176;DHT22;10746;50.178;8.186;2023-04-12T09:01:14;6.60;99.90
21176;DHT22;10746;50.178;8.186;2023-04-12T09:03:42;6.70;99.90
21176;DHT22;10746;50.178;8.186;2023-04-12T09:06:09;6.70;99.90
21176;DHT22;10746;50.178;8.186;2023-04-12T09:08:50;6.70;99.90
21176;DHT22;10746;50.178;8.186;2023-04-12T09:11:24;6.80;99.90
21176;DHT22;10746;50.178;8.186;2023-04-12T09:13:52;6.70;99.90
21176;DHT22;10746;50.178;8.186;2023-04-12T09:16:33;6.70;99.90
21176;DHT22;10746;50.178;8.186;2023-04-12T09:19:00;6.80;99.90
21176;DHT22;10746;50.178;8.186;2023-04-12T09:21:27;6.90;99.90
21176;DHT22;10746;50.178;8.186;2023-04-12T09:24:03;6.90;99.90
21176;DHT22;10746;50.178;8.186;2023-04-12T09:26:33;6.90;99.90
21176;DHT22;10746;50.178;8.186;2023-04-12T09:29:00;6.90;99.90
21176;DHT22;10746;50.178;8.186;2023-04-12T09:31:27;7.00;99.90
21176;DHT22;10746;50.178;8.186;2023-04-12T09:34:05;7.00;99.90
21176;DHT22;10746;50.178;8.186;2023-04-12T09:36:37;7.00;99.90
21176;DHT22;10746;50.178;8.186;2023-04-12T09:39:05;7.00;99.90
21176;DHT22;10746;50.178;8.186;2023-04-12T09:41:33;7.10;99.90
21176;DHT22;10746;50.178;8.186;2023-04-12T09:44:01;7.20;99.90
21176;DHT22;10746;50.178;8.186;2023-04-12T09:46:28;7.10;99.90
21176;DHT22;10746;50.178;8.186;2023-04-12T09:48:55;7.20;99.90
21176;DHT22;10746;50.178;8.186;2023-04-12T09:51:24;7.20;99.90
21176;DHT22;10746;50.178;8.186;2023-04-12T09:53:53;7.20;99.90
21176;DHT22;10746;50.178;8.186;2023-04-12T09:56:27;7.20;99.90
21176;DHT22;10746;50.178;8.186;2023-04-12T09:58:57;7.20;99.90
21176;DHT22;10746;50.178;8.186;2023-04-12T10:01:25;7.30;99.90
21176;DHT22;10746;50.178;8.186;2023-04-12T10:03:52;7.30;99.90
21176;DHT22;10746;50.178;8.186;2023-04-12T10:06:20;7.30;99.90
21176;DHT22;10746;50.178;8.186;2023-04-12T10:08:48;7.30;99.90
21176;DHT22;10746;50.178;8.186;2023-04-12T10:11:15;7.30;99.90
21176;DHT22;10746;50.178;8.186;2023-04-12T10:13:43;7.40;99.90
21176;DHT22;10746;50.178;8.186;2023-04-12T10:16:12;7.40;99.90
21176;DHT22;10746;50.178;8.186;2023-04-12T10:18:39;7.40;99.90
21176;DHT22;10746;50.178;8.186;2023-04-12T10:21:06;7.40;99.90
21176;DHT22;10746;50.178;8.186;2023-04-12T10:23:33;7.40;99.90
21176;DHT22;10746;50.178;8.186;2023-04-12T10:26:02;7.50;99.90
21176;DHT22;10746;50.178;8.186;2023-04-12T10:28:30;7.50;99.90
21176;DHT22;10746;50.178;8.186;2023-04-12T10:30:58;7.60;99.90
21176;DHT22;10746;50.178;8.186;2023-04-12T10:33:26;7.60;99.90
21176;DHT22;10746;50.178;8.186;2023-04-12T10:36:00;7.70;99.90
21176;DHT22;10746;50.178;8.186;2023-04-12T10:38:44;7.80;99.90
21176;DHT22;10746;50.178;8.186;2023-04-12T10:41:13;7.80;99.90
21176;DHT22;10746;50.178;8.186;2023-04-12T10:43:40;7.90;99.90
21176;DHT22;10746;50.178;8.186;2023-04-12T10:46:50;7.90;99.90
21176;DHT22;10746;50.178;8.186;2023-04-12T10:49:17;8.00;99.90
21176;DHT22;10746;50.178;8.186;2023-04-12T10:52:17;7.90;99.90
21176;DHT22;10746;50.178;8.186;2023-04-12T10:54:44;7.90;99.90
21176;DHT22;10746;50.178;8.186;2023-04-12T10:57:42;7.90;99.90
21176;DHT22;10746;50.178;8.186;2023-04-12T11:00:10;8.00;99.90
21176;DHT22;10746;50.178;8.186;2023-04-12T11:03:07;8.00;99.90
21176;DHT22;10746;50.178;8.186;2023-04-12T11:05:56;8.00;99.90
21176;DHT22;10746;50.178;8.186;2023-04-12T11:08:25;8.10;99.90
21176;DHT22;10746;50.178;8.186;2023-04-12T11:10:58;8.10;99.90
21176;DHT22;10746;50.178;8.186;2023-04-12T11:13:26;8.10;99.90
21176;DHT22;10746;50.178;8.186;2023-04-12T11:15:54;8.20;99.90
21176;DHT22;10746;50.178;8.186;2023-04-12T11:18:23;8.30;99.90
21176;DHT22;10746;50.178;8.186;2023-04-12T11:20:51;8.40;99.90
21176;DHT22;10746;50.178;8.186;2023-04-12T11:23:18;8.40;99.90
21176;DHT22;10746;50.178;8.186;2023-04-12T11:25:49;8.60;99.90
21176;DHT22;10746;50.178;8.186;2023-04-12T11:28:17;8.60;99.90
21176;DHT22;10746;50.178;8.186;2023-04-12T11:30:51;8.70;99.90
21176;DHT22;10746;50.178;8.186;2023-04-12T11:33:36;8.90;99.90
21176;DHT22;10746;50.178;8.186;2023-04-12T11:36:04;8.70;99.90
21176;DHT22;10746;50.178;8.186;2023-04-12T11:38:32;8.90;99.90
21176;DHT22;10746;50.178;8.186;2023-04-12T11:41:00;8.80;99.90
21176;DHT22;10746;50.178;8.186;2023-04-12T11:43:27;8.90;99.90
21176;DHT22;10746;50.178;8.186;2023-04-12T11:45:57;9.00;99.90
21176;DHT22;10746;50.178;8.186;2023-04-12T11:48:24;9.10;99.90
21176;DHT22;10746;50.178;8.186;2023-04-12T11:50:52;9.20;99.90
21176;DHT22;10746;50.178;8.186;2023-04-12T11:53:26;9.30;99.90
21176;DHT22;10746;50.178;8.186;2023-04-12T11:55:55;9.50;99.90
21176;DHT22;10746;50.178;8.186;2023-04-12T11:58:22;9.50;99.90
21176;DHT22;10746;50.178;8.186;2023-04-12T12:00:49;9.60;99.90
21176;DHT22;10746;50.178;8.186;2023-04-12T12:03:16;9.70;99.90
21176;DHT22;10746;50.178;8.186;2023-04-12T12:05:44;9.70;99.90
21176;DHT22;10746;50.178;8.186;2023-04-12T12:08:13;9.90;99.90
21176;DHT22;10746;50.178;8.186;2023-04-12T12:10:40;9.90;99.90
21176;DHT22;10746;50.178;8.186;2023-04-12T12:13:10;9.80;99.90
21176;DHT22;10746;50.178;8.186;2023-04-12T12:15:37;9.90;99.90
21176;DHT22;10746;50.178;8.186;2023-04-12T12:18:06;9.90;99.90
21176;DHT22;10746;50.178;8.186;2023-04-12T12:20:38;9.90;99.90
21176;DHT22;10746;50.178;8.186;2023-04-12T12:23:06;9.80;99.90
21176;DHT22;10746;50.178;8.186;2023-04-12T12:25:34;9.80;99.90
21176;DHT22;10746;50.178;8.186;2023-04-12T12:28:01;9.70;99.90
21176;DHT22;10746;50.178;8.186;2023-04-12T12:30:30;9.60;99.90
21176;DHT22;10746;50.178;8.186;2023-04-12T12:32:57;9.50;99.90
21176;DHT22;10746;50.178;8.186;2023-04-12T12:35:24;9.60;99.90
21176;DHT22;10746;50.178;8.186;2023-04-12T12:37:52;9.60;99.90
21176;DHT22;10746;50.178;8.186;2023-04-12T12:40:28;9.70;99.90
21176;DHT22;10746;50.178;8.186;2023-04-12T12:42:58;9.70;99.90
21176;DHT22;10746;50.178;8.186;2023-04-12T12:45:26;9.80;99.90
21176;DHT22;10746;50.178;8.186;2023-04-12T12:47:53;10.00;99.90
21176;DHT22;10746;50.178;8.186;2023-04-12T12:50:22;10.10;99.90
21176;DHT22;10746;50.178;8.186;2023-04-12T12:52:49;10.30;99.90
21176;DHT22;10746;50.178;8.186;2023-04-12T12:55:17;10.30;99.90
21176;DHT22;10746;50.178;8.186;2023-04-12T12:57:46;10.50;99.90
21176;DHT22;10746;50.178;8.186;2023-04-12T13:00:15;10.50;99.90
21176;DHT22;10746;50.178;8.186;2023-04-12T13:02:42;10.50;99.90
21176;DHT22;10746;50.178;8.186;2023-04-12T13:05:10;10.50;99.90
21176;DHT22;10746;50.178;8.186;2023-04-12T13:07:37;10.50;99.90
21176;DHT22;10746;50.178;8.186;2023-04-12T13:10:05;10.50;99.90
21176;DHT22;10746;50.178;8.186;2023-04-12T13:12:32;10.60;99.90
21176;DHT22;10746;50.178;8.186;2023-04-12T13:14:58;10.60;99.90
21176;DHT22;10746;50.178;8.186;2023-04-12T13:17:27;10.60;99.90
21176;DHT22;10746;50.178;8.186;2023-04-12T13:19:54;10.60;99.90
21176;DHT22;10746;50.178;8.186;2023-04-12T13:22:21;10.60;99.90
21176;DHT22;10746;50.178;8.186;2023-04-12T13:24:48;10.60;99.90
21176;DHT22;10746;50.178;8.186;2023-04-12T13:27:15;10.60;99.90
21176;DHT22;10746;50.178;8.186;2023-04-12T13:29:42;10.60;99.90
21176;DHT22;10746;50.178;8.186;2023-04-12T13:32:09;10.60;99.90
21176;DHT22;10746;50.178;8.186;2023-04-12T13:34:37;10.60;99.90
21176;DHT22;10746;50.178;8.186;2023-04-12T13:37:04;10.60;99.90
21176;DHT22;10746;50.178;8.186;2023-04-12T13:39:30;10.70;99.90
21176;DHT22;10746;50.178;8.186;2023-04-12T13:41:58;10.60;99.90
21176;DHT22;10746;50.178;8.186;2023-04-12T13:44:27;10.70;99.90
21176;DHT22;10746;50.178;8.186;2023-04-12T13:46:54;10.60;99.90
21176;DHT22;10746;50.178;8.186;2023-04-12T13:49:21;10.60;99.90
21176;DHT22;10746;50.178;8.186;2023-04-12T13:51:49;10.60;99.90
21176;DHT22;10746;50.178;8.186;2023-04-12T13:54:16;10.60;99.90
21176;DHT22;10746;50.178;8.186;2023-04-12T13:56:43;10.60;99.90
21176;DHT22;10746;50.178;8.186;2023-04-12T13:59:09;10.60;99.90
21176;DHT22;10746;50.178;8.186;2023-04-12T14:01:37;10.60;99.90
21176;DHT22;10746;50.178;8.186;2023-04-12T14:04:03;10.60;99.90
21176;DHT22;10746;50.178;8.186;2023-04-12T14:06:31;10.50;99.90
21176;DHT22;10746;50.178;8.186;2023-04-12T14:08:59;10.60;99.90
21176;DHT22;10746;50.178;8.186;2023-04-12T14:11:25;10.60;99.90
21176;DHT22;10746;50.178;8.186;2023-04-12T14:13:52;10.60;99.90
21176;DHT22;10746;50.178;8.186;2023-04-12T14:16:19;10.60;99.90
21176;DHT22;10746;50.178;8.186;2023-04-12T14:18:46;10.70;99.90
21176;DHT22;10746;50.178;8.186;2023-04-12T14:21:13;10.70;99.90
21176;DHT22;10746;50.178;8.186;2023-04-12T14:23:40;10.70;99.90
21176;DHT22;10746;50.178;8.186;2023-04-12T14:26:12;10.70;99.90
21176;DHT22;10746;50.178;8.186;2023-04-12T14:28:40;10.70;99.90
21176;DHT22;10746;50.178;8.186;2023-04-12T14:31:07;10.50;99.90
21176;DHT22;10746;50.178;8.186;2023-04-12T14:33:34;10.40;99.90
21176;DHT22;10746;50.178;8.186;2023-04-12T14:36:01;10.40;99.90
21176;DHT22;10746;50.178;8.186;2023-04-12T14:38:29;10.30;99.90
21176;DHT22;10746;50.178;8.186;2023-04-12T14:40:56;10.30;99.90
21176;DHT22;10746;50.178;8.186;2023-04-12T14:43:24;10.40;99.90
21176;DHT22;10746;50.178;8.186;2023-04-12T14:45:51;10.30;99.90
21176;DHT22;10746;50.178;8.186;2023-04-12T14:48:19;10.40;99.90
21176;DHT22;10746;50.178;8.186;2023-04-12T14:50:46;10.40;99.90
21176;DHT22;10746;50.178;8.186;2023-04-12T14:53:12;10.30;99.90
21176;DHT22;10746;50.178;8.186;2023-04-12T14:55:43;10.20;99.90
21176;DHT22;10746;50.178;8.186;2023-04-12T14:58:10;10.10;99.90
21176;DHT22;10746;50.178;8.186;2023-04-12T15:00:39;10.10;99.90
21176;DHT22;10746;50.178;8.186;2023-04-12T15:03:06;10.10;99.90
21176;DHT22;10746;50.178;8.186;2023-04-12T15:05:32;10.10;99.90
21176;DHT22;10746;50.178;8.186;2023-04-12T15:07:59;10.00;99.90
21176;DHT22;10746;50.178;8.186;2023-04-12T15:10:26;9.80;99.90
21176;DHT22;10746;50.178;8.186;2023-04-12T15:12:54;9.40;99.90
21176;DHT22;10746;50.178;8.186;2023-04-12T15:15:22;9.20;99.90
21176;DHT22;10746;50.178;8.186;2023-04-12T15:17:50;9.10;99.90
21176;DHT22;10746;50.178;8.186;2023-04-12T15:20:17;9.20;99.90
21176;DHT22;10746;50.178;8.186;2023-04-12T15:22:44;9.50;99.90
21176;DHT22;10746;50.178;8.186;2023-04-12T15:25:11;10.30;99.90
21176;DHT22;10746;50.178;8.186;2023-04-12T15:27:37;11.00;99.90
21176;DHT22;10746;50.178;8.186;2023-04-12T15:30:05;11.70;99.90
21176;DHT22;10746;50.178;8.186;2023-04-12T15:32:35;12.50;99.90
21176;DHT22;10746;50.178;8.186;2023-04-12T15:35:04;12.70;99.90
21176;DHT22;10746;50.178;8.186;2023-04-12T15:37:32;12.60;99.90
21176;DHT22;10746;50.178;8.186;2023-04-12T15:39:59;13.20;99.90
21176;DHT22;10746;50.178;8.186;2023-04-12T15:42:26;13.30;99.90
21176;DHT22;10746;50.178;8.186;2023-04-12T15:44:52;13.30;99.90
21176;DHT22;10746;50.178;8.186;2023-04-12T15:47:19;12.90;99.90
21176;DHT22;10746;50.178;8.186;2023-04-12T15:49:46;12.40;99.90